createdAt,value
2022-08-16T00:01:02.390Z,99.90
2022-08-16T00:06:08.395Z,99.90
2022-08-16T00:11:15.958Z,99.90
2022-08-16T00:17:01.608Z,99.90
2022-08-16T00:21:43.479Z,99.90
2022-08-16T00:26:46.062Z,99.90
2022-08-16T00:32:00.805Z,99.90
2022-08-16T00:37:07.965Z,99.90
2022-08-16T00:42:12.180Z,99.90
2022-08-16T00:47:18.279Z,99.90
2022-08-16T00:52:29.710Z,99.90
2022-08-16T00:57:59.959Z,99.90
2022-08-16T01:02:59.744Z,99.90
2022-08-16T01:08:35.433Z,99.90
2022-08-16T01:13:30.545Z,99.90
2022-08-16T01:18:42.435Z,99.90
2022-08-16T01:24:51.754Z,99.90
2022-08-16T01:30:04.770Z,99.90
2022-08-16T01:35:35.061Z,99.90
2022-08-16T01:40:40.301Z,99.90
2022-08-16T01:45:43.874Z,99.90
2022-08-16T01:51:09.788Z,99.90
2022-08-16T01:56:23.369Z,99.90
2022-08-16T02:01:29.452Z,99.90
2022-08-16T02:06:38.013Z,99.90
2022-08-16T02:11:53.515Z,99.90
2022-08-16T02:16:59.379Z,99.90
2022-08-16T02:22:08.332Z,99.90
2022-08-16T02:27:27.438Z,99.90
2022-08-16T02:33:02.681Z,99.90
2022-08-16T02:38:01.803Z,99.90
2022-08-16T02:43:13.091Z,99.90
2022-08-16T02:48:28.944Z,99.90
2022-08-16T02:53:37.283Z,99.90
2022-08-16T02:58:41.669Z,99.90
2022-08-16T03:04:30.132Z,99.90
2022-08-16T03:09:14.931Z,99.90
2022-08-16T03:14:24.759Z,99.90
2022-08-16T03:19:52.815Z,99.90
2022-08-16T03:25:02.166Z,99.90
2022-08-16T03:30:17.641Z,99.90
2022-08-16T03:35:33.689Z,99.90
2022-08-16T03:40:49.237Z,99.90
2022-08-16T03:45:55.404Z,99.90
2022-08-16T03:51:04.085Z,99.90
2022-08-16T03:56:19.932Z,99.90
2022-08-16T04:01:29.176Z,99.90
2022-08-16T04:06:32.924Z,99.90
2022-08-16T04:11:37.750Z,99.90
2022-08-16T04:16:40.855Z,99.90
2022-08-16T04:22:13.097Z,99.90
2022-08-16T04:27:24.481Z,99.90
2022-08-16T04:32:31.806Z,99.90
2022-08-16T04:37:42.207Z,99.90
2022-08-16T04:43:05.061Z,99.90
2022-08-16T04:48:10.391Z,99.90
2022-08-16T04:53:33.525Z,99.90
2022-08-16T04:58:44.515Z,99.90
2022-08-16T05:04:00.468Z,99.90
2022-08-16T05:09:06.488Z,99.90
2022-08-16T05:14:09.266Z,99.90
2022-08-16T05:19:17.340Z,99.90
2022-08-16T05:24:39.891Z,99.90
2022-08-16T05:29:57.878Z,99.90
2022-08-16T05:35:10.736Z,99.90
2022-08-16T05:40:17.587Z,99.90
2022-08-16T05:45:23.288Z,99.90
2022-08-16T05:50:34.111Z,99.90
2022-08-16T05:55:40.773Z,99.90
2022-08-16T06:00:44.168Z,99.90
2022-08-16T06:05:51.558Z,99.90
2022-08-16T06:11:09.562Z,99.90
2022-08-16T06:16:18.274Z,99.90
2022-08-16T06:21:23.917Z,99.90
2022-08-16T06:26:36.980Z,99.90
2022-08-16T06:31:48.991Z,99.90
2022-08-16T06:36:59.178Z,99.90
2022-08-16T06:42:03.789Z,99.90
2022-08-16T06:47:53.906Z,99.90
2022-08-16T06:52:57.177Z,99.90
2022-08-16T06:58:02.235Z,99.90
2022-08-16T07:03:26.822Z,99.90
2022-08-16T07:08:32.301Z,99.90
2022-08-16T07:14:00.637Z,99.90
2022-08-16T07:19:02.993Z,99.90
2022-08-16T07:24:11.109Z,99.90
2022-08-16T07:29:34.310Z,99.90
2022-08-16T07:34:48.219Z,99.90
2022-08-16T07:39:54.687Z,99.90
2022-08-16T07:44:58.169Z,99.90
2022-08-16T07:50:05.382Z,99.90
2022-08-16T07:55:11.128Z,99.90
2022-08-16T08:00:18.419Z,99.90
2022-08-16T08:05:35.702Z,99.90
2022-08-16T08:10:41.597Z,99.90
2022-08-16T08:15:52.423Z,99.90
2022-08-16T08:20:59.484Z,99.90
2022-08-16T08:26:10.026Z,99.90
2022-08-16T08:31:20.656Z,99.90
2022-08-16T08:36:33.467Z,99.90
2022-08-16T08:41:43.310Z,99.90
2022-08-16T08:47:00.129Z,99.90
2022-08-16T08:52:08.024Z,99.90
2022-08-16T08:57:13.339Z,99.90
2022-08-16T09:02:33.839Z,99.90
2022-08-16T09:08:00.924Z,99.90
2022-08-16T09:13:11.656Z,99.90
2022-08-16T09:18:25.234Z,99.90
2022-08-16T09:23:36.532Z,99.90
2022-08-16T09:29:16.880Z,99.90
2022-08-16T09:34:05.189Z,99.90
2022-08-16T09:39:08.162Z,99.90
2022-08-16T09:45:12.491Z,99.90
2022-08-16T09:49:43.173Z,99.90
2022-08-16T09:54:54.667Z,99.90
2022-08-16T09:59:58.014Z,99.90
2022-08-16T10:05:01.049Z,99.90
2022-08-16T10:10:07.461Z,99.90
2022-08-16T10:15:17.807Z,99.90
2022-08-16T10:20:21.064Z,99.90
2022-08-16T10:27:20.023Z,99.90
2022-08-16T10:30:48.092Z,99.90
2022-08-16T10:36:06.339Z,99.90
2022-08-16T10:41:16.147Z,99.90
2022-08-16T10:46:39.437Z,99.90
2022-08-16T10:52:02.019Z,99.90
2022-08-16T10:57:05.619Z,99.90
2022-08-16T11:02:57.880Z,99.60
2022-08-16T11:07:52.186Z,99.60
2022-08-16T11:12:56.727Z,99.80
2022-08-16T11:23:23.195Z,99.90
2022-08-16T11:33:52.507Z,99.00
2022-08-16T11:38:58.680Z,98.50
2022-08-16T11:44:01.908Z,98.30
2022-08-16T11:49:11.202Z,98.10
2022-08-16T11:54:20.388Z,99.30
2022-08-16T11:59:28.776Z,97.10
2022-08-16T12:04:34.000Z,96.80
2022-08-16T12:09:41.238Z,95.80
2022-08-16T12:14:46.007Z,95.70
2022-08-16T12:19:48.913Z,95.90
2022-08-16T12:24:53.424Z,96.10
2022-08-16T12:29:58.633Z,95.10
2022-08-16T12:35:01.828Z,96.00
2022-08-16T12:40:19.796Z,93.60
2022-08-16T12:45:31.141Z,94.20
2022-08-16T12:50:34.276Z,94.90
2022-08-16T12:55:41.845Z,94.70
2022-08-16T13:00:44.800Z,94.80
2022-08-16T13:05:55.069Z,94.50
2022-08-16T13:11:00.539Z,94.30
2022-08-16T13:16:15.449Z,93.50
2022-08-16T13:21:23.735Z,94.40
2022-08-16T13:26:27.945Z,94.30
2022-08-16T13:31:30.395Z,94.80
2022-08-16T13:36:48.117Z,95.00
2022-08-16T13:41:54.106Z,94.30
2022-08-16T13:46:57.473Z,94.00
2022-08-16T13:52:00.335Z,94.50
2022-08-16T13:57:03.536Z,93.50
2022-08-16T14:02:08.668Z,94.50
2022-08-16T14:07:24.532Z,94.10
2022-08-16T14:12:30.596Z,95.00
2022-08-16T14:18:01.827Z,94.00
2022-08-16T14:22:56.229Z,95.10
2022-08-16T14:27:59.289Z,97.50
2022-08-16T14:33:04.340Z,97.70
2022-08-16T14:38:09.326Z,99.60
2022-08-16T14:43:11.893Z,99.90
2022-08-16T14:48:25.099Z,99.90
2022-08-16T14:53:32.634Z,99.90
2022-08-16T14:58:36.811Z,99.90
2022-08-16T15:03:44.728Z,99.90
2022-08-16T15:08:47.639Z,99.90
2022-08-16T15:13:50.181Z,99.90
2022-08-16T15:18:54.509Z,99.90
2022-08-16T15:23:58.733Z,99.90
2022-08-16T15:29:01.535Z,99.90
2022-08-16T15:34:04.114Z,99.90
2022-08-16T15:39:31.823Z,99.90
2022-08-16T15:44:44.748Z,99.90
2022-08-16T15:49:56.382Z,99.90
2022-08-16T15:55:13.249Z,99.90
2022-08-16T16:00:27.885Z,99.90
2022-08-16T16:05:30.459Z,99.90
2022-08-16T16:10:37.475Z,99.90
2022-08-16T16:15:47.271Z,99.90
2022-08-16T16:20:54.186Z,99.90
2022-08-16T16:25:57.682Z,99.90
2022-08-16T16:31:01.646Z,99.90
2022-08-16T16:36:07.023Z,99.90
2022-08-16T16:41:09.919Z,99.90
2022-08-16T16:46:41.216Z,99.90
2022-08-16T16:51:40.576Z,99.90
2022-08-16T16:56:49.928Z,99.90
2022-08-16T17:01:57.586Z,99.90
2022-08-16T17:07:03.619Z,99.90
2022-08-16T17:12:06.378Z,99.90
2022-08-16T17:17:13.396Z,99.90
2022-08-16T17:22:20.059Z,99.90
2022-08-16T17:27:32.585Z,99.90
2022-08-16T17:32:47.330Z,99.90
2022-08-16T17:37:52.534Z,99.90
2022-08-16T17:42:57.641Z,99.90
2022-08-16T17:48:00.250Z,99.90
2022-08-16T17:53:06.146Z,99.90
2022-08-16T17:58:22.902Z,99.90
2022-08-16T18:04:02.865Z,99.90
2022-08-16T18:09:03.866Z,99.90
2022-08-16T18:14:06.916Z,99.90
2022-08-16T18:19:10.685Z,99.90
2022-08-16T18:24:15.042Z,99.90
2022-08-16T18:29:18.188Z,99.90
2022-08-16T18:34:20.857Z,99.90
2022-08-16T18:39:23.555Z,99.90
2022-08-16T18:44:30.126Z,99.90
2022-08-16T18:49:36.891Z,99.90
2022-08-16T18:55:02.043Z,99.90
2022-08-16T19:00:02.335Z,99.90
2022-08-16T19:05:05.373Z,99.90
2022-08-16T19:10:09.116Z,99.90
2022-08-16T19:15:16.185Z,99.90
2022-08-16T19:20:23.879Z,99.90
2022-08-16T19:25:46.396Z,99.90
2022-08-16T19:30:51.294Z,99.90
2022-08-16T19:35:53.860Z,99.90
2022-08-16T19:40:56.425Z,99.90
2022-08-16T19:45:59.083Z,99.90
2022-08-16T19:51:01.573Z,99.90
2022-08-16T19:56:04.840Z,99.90
2022-08-16T20:01:07.516Z,99.90
2022-08-16T20:06:10.443Z,99.90
2022-08-16T20:11:15.476Z,99.90
2022-08-16T20:16:18.052Z,99.90
2022-08-16T20:21:20.540Z,99.90
2022-08-16T20:26:24.783Z,99.90
2022-08-16T20:31:27.415Z,99.90
2022-08-16T20:36:30.252Z,99.90
2022-08-16T20:41:32.792Z,99.90
2022-08-16T20:46:35.286Z,99.90
2022-08-16T20:51:49.926Z,99.90
2022-08-16T20:56:54.431Z,99.90
2022-08-16T21:01:58.391Z,99.90
2022-08-16T21:07:00.950Z,99.90
2022-08-16T21:12:11.391Z,99.90
2022-08-16T21:17:17.194Z,99.90
2022-08-16T21:22:22.825Z,99.90
2022-08-16T21:27:25.270Z,99.90
2022-08-16T21:32:35.375Z,99.90
2022-08-16T21:37:39.705Z,99.90
2022-08-16T21:42:43.228Z,99.90
2022-08-16T21:47:45.657Z,99.90
2022-08-16T21:52:48.218Z,99.90
2022-08-16T21:57:50.686Z,99.90
2022-08-16T22:02:58.168Z,99.90
2022-08-16T22:08:01.751Z,99.90
2022-08-16T22:13:06.671Z,99.90
2022-08-16T22:18:09.391Z,99.90
2022-08-16T22:23:23.721Z,99.90
2022-08-16T22:28:26.472Z,99.90
2022-08-16T22:33:29.086Z,99.90
2022-08-16T22:38:56.228Z,99.90
2022-08-16T22:43:56.071Z,99.90
2022-08-16T22:48:58.933Z,99.90
2022-08-16T22:54:46.387Z,99.90
2022-08-16T22:59:25.314Z,99.90
2022-08-16T23:04:30.233Z,99.90
2022-08-16T23:09:33.091Z,99.90
2022-08-16T23:14:35.560Z,99.90
2022-08-16T23:19:38.240Z,99.90
2022-08-16T23:24:56.327Z,99.90
2022-08-16T23:30:00.181Z,99.90
2022-08-16T23:35:04.060Z,99.90
2022-08-16T23:40:11.685Z,99.90
2022-08-16T23:45:14.304Z,99.90
2022-08-16T23:50:17.184Z,99.90
2022-08-16T23:55:19.785Z,99.90
